Time;durP1;ratioP1;P1;durP2;ratioP2;P2;SDS_P1;SDS_P2;PMS_P1;PMS_P2;Temp;Humidity;BMP_temperature;BMP_pressure;BME280_temperature;BME280_humidity;BME280_pressure;Samples;Min_cycle;Max_cycle;Signal;HPM_P1;HPM_P2
2022/08/27 00:01:50;;;;;;;5.10;4.70;;;24.50;62.50;;;;;;5001836;28;20182;-18
2022/08/27 00:04:16;;;;;;;5.50;4.85;;;24.40;62.60;;;;;;5008576;28;20038;-18
2022/08/27 00:06:41;;;;;;;5.03;4.63;;;24.50;62.60;;;;;;5002746;28;20044;-18
2022/08/27 00:09:07;;;;;;;5.53;5.03;;;24.50;62.40;;;;;;4995904;28;20420;-18
2022/08/27 00:11:33;;;;;;;5.65;5.10;;;24.50;62.50;;;;;;5007157;28;20061;-18
2022/08/27 00:13:59;;;;;;;6.10;4.47;;;24.50;62.60;;;;;;4995083;28;20054;-19
2022/08/27 00:16:25;;;;;;;5.40;5.00;;;24.50;62.60;;;;;;4998813;28;20091;-18
2022/08/27 00:18:52;;;;;;;5.25;4.15;;;24.50;62.70;;;;;;5001114;28;20120;-18
2022/08/27 00:21:18;;;;;;;5.22;4.70;;;24.40;62.40;;;;;;4997948;28;20038;-18
2022/08/27 00:23:43;;;;;;;5.65;5.10;;;24.50;62.40;;;;;;5009925;28;21461;-18
2022/08/27 00:26:09;;;;;;;5.20;4.75;;;24.50;62.50;;;;;;5000127;28;20042;-18
2022/08/27 00:28:34;;;;;;;5.47;4.97;;;24.40;62.60;;;;;;5002639;28;20133;-19
2022/08/27 00:31:00;;;;;;;5.43;4.93;;;24.50;62.40;;;;;;5002104;28;20038;-19
2022/08/27 00:33:26;;;;;;;4.53;4.13;;;24.50;62.50;;;;;;5001274;28;20133;-19
2022/08/27 00:35:52;;;;;;;4.43;4.03;;;24.50;62.50;;;;;;5001097;28;20176;-18
2022/08/27 00:38:17;;;;;;;5.10;4.60;;;24.40;62.60;;;;;;5001266;28;20165;-18
2022/08/27 00:40:43;;;;;;;4.65;4.25;;;24.50;62.50;;;;;;4998305;28;20385;-18
2022/08/27 00:43:09;;;;;;;5.43;4.93;;;24.40;62.50;;;;;;5005084;28;20535;-18
2022/08/27 00:45:42;;;;;;;4.47;4.07;;;24.40;62.50;;;;;;5000886;28;20050;-18
2022/08/27 00:48:09;;;;;;;4.97;4.57;;;24.50;63.20;;;;;;5002934;28;20159;-18
2022/08/27 00:50:36;;;;;;;5.15;4.72;;;24.50;62.40;;;;;;5001929;28;20046;-18
2022/08/27 00:53:08;;;;;;;4.72;4.32;;;24.50;62.40;;;;;;5001199;28;20103;-24
2022/08/27 00:55:36;;;;;;;5.45;4.68;;;24.50;62.40;;;;;;5016849;28;20122;-18
2022/08/27 00:58:11;;;;;;;4.20;3.90;;;24.50;62.40;;;;;;4987927;28;20034;-18
2022/08/27 01:00:36;;;;;;;4.65;4.35;;;24.50;62.20;;;;;;4995673;28;20482;-19
2022/08/27 01:03:02;;;;;;;4.80;4.40;;;24.50;62.30;;;;;;4996471;28;20054;-18
2022/08/27 01:05:28;;;;;;;5.05;4.40;;;24.50;62.40;;;;;;5000296;28;20053;-23
2022/08/27 01:07:56;;;;;;;5.32;4.90;;;24.50;62.50;;;;;;5002411;28;20195;-18
2022/08/27 01:10:23;;;;;;;4.10;3.80;;;24.50;62.50;;;;;;5012271;28;20049;-18
2022/08/27 01:12:51;;;;;;;5.07;4.57;;;24.50;62.40;;;;;;5001483;28;20049;-18
2022/08/27 01:15:16;;;;;;;4.18;3.88;;;24.50;62.50;;;;;;5002217;28;20042;-22
2022/08/27 01:17:43;;;;;;;4.07;3.78;;;24.50;62.40;;;;;;5008661;28;20444;-18
2022/08/27 01:20:19;;;;;;;3.72;3.42;;;24.50;62.50;;;;;;5003322;28;20041;-18
2022/08/27 01:23:00;;;;;;;4.88;3.83;;;24.50;62.50;;;;;;5014319;28;20054;-18
2022/08/27 01:25:26;;;;;;;4.03;3.72;;;24.50;62.40;;;;;;4998905;28;20136;-19
2022/08/27 01:27:52;;;;;;;3.92;3.63;;;24.50;62.50;;;;;;4998342;28;20473;-19
2022/08/27 01:30:18;;;;;;;3.60;3.38;;;24.50;62.50;;;;;;4997805;28;20583;-18
2022/08/27 01:32:44;;;;;;;3.85;3.55;;;24.50;62.50;;;;;;5010127;28;20046;-19
2022/08/27 01:35:11;;;;;;;3.47;3.17;;;24.40;62.60;;;;;;4997260;28;20474;-17
2022/08/27 01:37:37;;;;;;;4.60;4.20;;;24.40;62.60;;;;;;4999842;28;20159;-18
2022/08/27 01:40:03;;;;;;;4.65;4.25;;;24.40;62.60;;;;;;5005279;28;21743;-18
2022/08/27 01:42:32;;;;;;;3.70;3.40;;;24.40;62.60;;;;;;5000859;28;20060;-18
2022/08/27 01:44:59;;;;;;;3.75;3.55;;;24.40;62.70;;;;;;4999081;28;20098;-19
2022/08/27 01:47:26;;;;;;;4.00;3.70;;;24.50;62.80;;;;;;5000892;28;20045;-23
2022/08/27 01:49:51;;;;;;;3.67;3.40;;;24.40;62.60;;;;;;5000242;28;20062;-18
2022/08/27 01:52:19;;;;;;;3.15;2.95;;;24.40;63.50;;;;;;4999631;28;20524;-18
2022/08/27 01:54:44;;;;;;;2.92;2.72;;;24.40;62.70;;;;;;5000487;28;20057;-18
2022/08/27 01:57:10;;;;;;;3.40;3.10;;;24.40;62.80;;;;;;5003057;28;20048;-18
2022/08/27 01:59:36;;;;;;;3.45;3.22;;;24.40;62.90;;;;;;5000459;28;20042;-17
2022/08/27 02:02:02;;;;;;;3.53;3.33;;;24.40;62.80;;;;;;5001312;28;20060;-17
2022/08/27 02:04:28;;;;;;;3.40;3.20;;;24.40;62.80;;;;;;5006488;28;20126;-17
2022/08/27 02:06:54;;;;;;;3.42;3.10;;;24.40;62.90;;;;;;5000775;28;20072;-26
2022/08/27 02:09:20;;;;;;;2.90;2.70;;;24.40;62.80;;;;;;4995706;28;20073;-18
2022/08/27 02:11:45;;;;;;;3.47;3.17;;;24.40;62.80;;;;;;4998709;28;20584;-18
2022/08/27 02:14:11;;;;;;;3.25;3.05;;;24.40;62.90;;;;;;5007139;28;20050;-18
2022/08/27 02:16:36;;;;;;;3.00;2.80;;;24.40;62.80;;;;;;4999785;28;20052;-18
2022/08/27 02:19:02;;;;;;;2.72;2.53;;;24.30;62.80;;;;;;4998318;28;20053;-18
2022/08/27 02:21:28;;;;;;;3.17;2.88;;;24.30;62.80;;;;;;5000474;28;20053;-22
2022/08/27 02:23:54;;;;;;;2.88;2.67;;;24.30;62.80;;;;;;4999378;28;20509;-17
2022/08/27 02:26:20;;;;;;;3.58;3.38;;;24.40;63.00;;;;;;4999415;28;20046;-18
2022/08/27 02:28:46;;;;;;;3.13;2.92;;;24.40;62.80;;;;;;5000461;28;20047;-35
2022/08/27 02:31:11;;;;;;;2.63;2.42;;;24.40;62.80;;;;;;5000114;28;20102;-18
2022/08/27 02:33:37;;;;;;;3.17;2.97;;;24.40;62.90;;;;;;4999739;28;20072;-18
2022/08/27 02:36:03;;;;;;;2.63;2.47;;;24.40;62.80;;;;;;4999199;28;20037;-18
2022/08/27 02:38:28;;;;;;;3.13;2.92;;;24.40;62.80;;;;;;5000248;28;20045;-18
2022/08/27 02:40:54;;;;;;;3.38;3.03;;;24.40;62.80;;;;;;5004184;28;20128;-18
2022/08/27 02:43:20;;;;;;;2.35;2.25;;;24.30;62.80;;;;;;5000413;28;20121;-25
2022/08/27 02:45:45;;;;;;;2.63;2.42;;;24.30;62.80;;;;;;5000390;28;20064;-18
2022/08/27 02:48:11;;;;;;;2.47;2.38;;;24.40;62.80;;;;;;4996345;28;20067;-18
2022/08/27 02:50:36;;;;;;;2.58;2.38;;;24.40;62.90;;;;;;4994594;28;20136;-19
2022/08/27 02:53:03;;;;;;;2.45;2.25;;;24.40;62.80;;;;;;4999467;28;20053;-18
2022/08/27 02:55:28;;;;;;;2.70;2.50;;;24.40;63.50;;;;;;5020710;28;20042;-18
2022/08/27 02:57:54;;;;;;;3.10;2.90;;;24.40;62.70;;;;;;4998080;28;20095;-17
2022/08/27 03:00:20;;;;;;;2.70;2.50;;;24.40;62.80;;;;;;4999616;28;20044;-17
2022/08/27 03:02:46;;;;;;;2.55;2.35;;;24.30;62.80;;;;;;4998065;28;20044;-16
2022/08/27 03:05:12;;;;;;;2.38;2.28;;;24.40;62.80;;;;;;5000248;28;20070;-18
2022/08/27 03:07:39;;;;;;;2.58;2.42;;;24.30;62.80;;;;;;4996878;28;20065;-18
2022/08/27 03:10:05;;;;;;;2.83;2.63;;;24.30;62.80;;;;;;4996772;28;20050;-17
2022/08/27 03:12:30;;;;;;;2.00;1.90;;;24.30;62.90;;;;;;5000107;28;20064;-18
2022/08/27 03:14:56;;;;;;;1.50;1.20;;;24.20;59.50;;;;;;4994899;28;20038;-18
2022/08/27 03:20:08;;;;;;;1.42;1.33;;;23.60;62.10;;;;;;4996795;28;20077;-18
2022/08/27 03:22:33;;;;;;;1.52;0.90;;;23.10;58.70;;;;;;5001105;28;20516;-18
2022/08/27 03:25:03;;;;;;;1.67;1.23;;;22.80;58.70;;;;;;5000462;28;20085;-20
2022/08/27 03:27:29;;;;;;;1.67;1.08;;;22.60;59.10;;;;;;4995292;28;20657;-18
2022/08/27 03:29:55;;;;;;;0.93;0.73;;;22.40;59.10;;;;;;4999775;28;20042;-17
2022/08/27 03:32:20;;;;;;;1.40;0.80;;;22.30;59.90;;;;;;4998869;28;20035;-17
2022/08/27 03:34:46;;;;;;;0.90;0.73;;;22.10;60.20;;;;;;5009511;28;20054;-18
2022/08/27 03:37:11;;;;;;;1.88;0.80;;;21.90;60.90;;;;;;4996650;28;20049;-17
2022/08/27 03:39:37;;;;;;;1.60;0.90;;;21.80;61.30;;;;;;4998322;28;20045;-18
2022/08/27 03:42:03;;;;;;;1.27;0.80;;;21.80;61.30;;;;;;4994301;28;20033;-18
2022/08/27 03:44:28;;;;;;;1.27;0.90;;;21.50;62.00;;;;;;4999254;28;20145;-18
2022/08/27 03:46:54;;;;;;;0.98;0.60;;;21.50;62.10;;;;;;4996540;28;20042;-17
2022/08/27 03:49:20;;;;;;;1.60;1.00;;;21.50;62.40;;;;;;4993961;28;20066;-17
2022/08/27 03:51:46;;;;;;;1.38;0.85;;;21.50;62.60;;;;;;5000157;28;20072;-17
2022/08/27 03:54:11;;;;;;;1.60;0.98;;;21.20;62.90;;;;;;5003311;28;20050;-18
2022/08/27 03:56:38;;;;;;;2.63;1.05;;;21.00;63.50;;;;;;4998442;28;20050;-17
2022/08/27 03:59:05;;;;;;;1.08;0.98;;;21.00;63.80;;;;;;5002114;28;20049;-21
2022/08/27 04:01:31;;;;;;;1.33;0.88;;;21.00;64.50;;;;;;5008984;28;20045;-18
2022/08/27 04:03:56;;;;;;;2.15;0.88;;;20.90;64.10;;;;;;5002062;28;20114;-19
2022/08/27 04:06:22;;;;;;;1.23;1.00;;;20.90;64.10;;;;;;5001212;28;20048;-17
2022/08/27 04:08:48;;;;;;;2.20;0.90;;;20.60;64.40;;;;;;5010764;28;20073;-18
2022/08/27 04:11:13;;;;;;;1.17;0.93;;;20.70;64.90;;;;;;4997871;28;20034;-26
2022/08/27 04:13:39;;;;;;;1.80;0.80;;;20.60;64.70;;;;;;5003408;28;20056;-18
2022/08/27 04:16:05;;;;;;;2.13;1.25;;;20.60;64.70;;;;;;5001026;28;20042;-17
2022/08/27 04:18:31;;;;;;;1.58;0.93;;;20.50;65.10;;;;;;4998273;28;20026;-18
2022/08/27 04:20:57;;;;;;;2.55;1.38;;;20.50;65.00;;;;;;5003086;28;20484;-18
2022/08/27 04:23:22;;;;;;;1.77;0.95;;;20.30;65.40;;;;;;5001789;28;20083;-17
2022/08/27 04:25:48;;;;;;;1.15;0.80;;;20.20;65.90;;;;;;5002942;28;20045;-17
2022/08/27 04:28:14;;;;;;;1.20;1.10;;;20.20;66.10;;;;;;5001972;28;20042;-17
2022/08/27 04:30:41;;;;;;;1.67;0.80;;;20.10;66.10;;;;;;5002386;28;20057;-19
2022/08/27 04:33:07;;;;;;;2.00;0.93;;;20.00;66.40;;;;;;4998901;28;20043;-17
2022/08/27 04:35:33;;;;;;;0.90;0.60;;;20.00;66.70;;;;;;5000976;28;20402;-18
2022/08/27 04:37:59;;;;;;;1.80;0.85;;;19.90;66.80;;;;;;5010034;28;20050;-17
2022/08/27 04:41:18;;;;;;;2.08;0.90;;;19.90;66.90;;;;;;5003037;28;20048;-17
2022/08/27 04:43:12;;;;;;;1.17;1.08;;;19.90;66.90;;;;;;5001816;28;20057;-18
2022/08/27 04:45:45;;;;;;;1.52;1.10;;;19.70;67.30;;;;;;5002325;28;20044;-18
2022/08/27 04:48:11;;;;;;;1.55;0.93;;;19.80;67.10;;;;;;5005120;28;20034;-17
2022/08/27 04:50:41;;;;;;;0.93;0.70;;;19.70;67.00;;;;;;4999676;28;20040;-17
2022/08/27 04:53:07;;;;;;;2.10;0.85;;;19.70;67.10;;;;;;5003809;28;20104;-17
2022/08/27 04:55:33;;;;;;;1.77;1.00;;;19.60;67.20;;;;;;4996247;28;20046;-18
2022/08/27 04:57:58;;;;;;;1.00;0.95;;;19.60;67.60;;;;;;5002120;28;20038;-17
2022/08/27 05:00:24;;;;;;;1.45;1.10;;;19.50;67.70;;;;;;4999673;28;20121;-24
2022/08/27 05:02:50;;;;;;;1.33;0.80;;;19.40;68.00;;;;;;5002504;28;20054;-23
2022/08/27 05:05:15;;;;;;;1.42;0.98;;;19.40;67.80;;;;;;5002130;28;20117;-17
2022/08/27 05:07:42;;;;;;;0.93;0.82;;;19.40;67.90;;;;;;4999490;28;20072;-17
2022/08/27 05:10:08;;;;;;;1.92;0.90;;;19.30;68.00;;;;;;4999602;28;20031;-22
2022/08/27 05:12:34;;;;;;;2.65;0.95;;;19.30;68.10;;;;;;5001595;28;20511;-17
2022/08/27 05:14:59;;;;;;;2.05;1.42;;;19.30;68.30;;;;;;4998159;28;20042;-18
2022/08/27 05:17:30;;;;;;;0.80;0.80;;;19.30;68.20;;;;;;5003054;28;20119;-17
2022/08/27 05:19:55;;;;;;;1.13;0.90;;;19.20;68.40;;;;;;5000483;28;20074;-17
2022/08/27 05:22:21;;;;;;;1.00;0.90;;;19.20;68.40;;;;;;5000644;28;20064;-17
2022/08/27 05:24:46;;;;;;;1.13;0.88;;;19.20;68.30;;;;;;5006190;28;20067;-17
2022/08/27 05:27:12;;;;;;;0.98;0.82;;;19.20;68.40;;;;;;5000782;28;20095;-17
2022/08/27 05:29:37;;;;;;;1.10;1.00;;;19.10;68.30;;;;;;5008134;28;23572;-17
2022/08/27 05:32:03;;;;;;;1.40;0.90;;;19.10;68.50;;;;;;5004684;28;20066;-17
2022/08/27 05:34:29;;;;;;;2.60;0.90;;;19.00;68.70;;;;;;5003311;28;20085;-17
2022/08/27 05:36:55;;;;;;;1.83;1.02;;;18.90;69.90;;;;;;4998707;28;20057;-18
2022/08/27 05:39:20;;;;;;;1.88;1.08;;;18.90;69.20;;;;;;4996993;28;20043;-18
2022/08/27 05:41:46;;;;;;;2.22;1.27;;;18.80;69.70;;;;;;4999657;28;20081;-17
2022/08/27 05:44:12;;;;;;;1.48;0.90;;;18.70;69.90;;;;;;5004911;28;20735;-18
2022/08/27 05:46:38;;;;;;;1.35;0.88;;;18.80;69.80;;;;;;5005808;28;20065;-23
2022/08/27 05:49:03;;;;;;;1.35;0.90;;;18.80;69.70;;;;;;5003510;28;20514;-17
2022/08/27 05:51:31;;;;;;;1.70;1.10;;;18.80;69.70;;;;;;5007365;28;20051;-17
2022/08/27 05:54:01;;;;;;;1.45;0.77;;;18.80;69.80;;;;;;4996135;28;20890;-17
2022/08/27 05:56:28;;;;;;;2.20;1.20;;;18.60;70.20;;;;;;5000630;28;20049;-17
2022/08/27 06:01:41;;;;;;;1.15;0.93;;;18.60;70.10;;;;;;5000647;28;20057;-18
2022/08/27 06:04:08;;;;;;;1.33;1.02;;;18.70;70.20;;;;;;4996540;28;20061;-17
2022/08/27 06:06:34;;;;;;;1.52;0.88;;;18.70;70.10;;;;;;4994709;28;20050;-17
2022/08/27 06:09:00;;;;;;;1.20;0.98;;;18.60;70.20;;;;;;5000422;28;20042;-18
2022/08/27 06:11:27;;;;;;;2.38;1.00;;;18.60;70.40;;;;;;4999452;28;20052;-17
2022/08/27 06:13:54;;;;;;;1.13;0.70;;;18.60;70.30;;;;;;5001129;28;20504;-17
2022/08/27 06:16:19;;;;;;;0.80;0.77;;;18.50;70.70;;;;;;4999615;28;20067;-17
2022/08/27 06:18:46;;;;;;;1.48;1.15;;;18.60;70.80;;;;;;5003640;28;20500;-17
2022/08/27 06:21:11;;;;;;;1.63;1.00;;;18.60;70.70;;;;;;5006085;28;20121;-17
2022/08/27 06:23:37;;;;;;;0.93;0.75;;;18.60;70.70;;;;;;5009434;28;20129;-17
2022/08/27 06:26:08;;;;;;;0.82;0.70;;;18.60;70.70;;;;;;5002815;28;20057;-17
2022/08/27 06:28:34;;;;;;;1.10;0.70;;;18.60;70.70;;;;;;4998544;28;20042;-18
2022/08/27 06:31:08;;;;;;;0.93;0.50;;;18.60;70.90;;;;;;4998090;28;20062;-17
2022/08/27 06:33:34;;;;;;;1.63;0.80;;;18.40;71.60;;;;;;4996387;28;20043;-21
2022/08/27 06:36:00;;;;;;;0.90;0.70;;;18.40;72.40;;;;;;4994183;28;20042;-18
2022/08/27 06:38:27;;;;;;;0.65;0.60;;;18.70;71.60;;;;;;4998260;28;20059;-17
2022/08/27 06:40:52;;;;;;;0.20;0.20;;;18.90;70.80;;;;;;4998593;28;20054;-17
2022/08/27 06:43:18;;;;;;;1.45;0.40;;;19.10;70.10;;;;;;4648046;28;10000429;-17
2022/08/27 06:45:44;;;;;;;0.73;0.40;;;19.30;69.60;;;;;;4995173;28;20053;-18
2022/08/27 06:48:09;;;;;;;2.10;0.60;;;19.30;69.20;;;;;;4996497;28;20061;-17
2022/08/27 06:50:39;;;;;;;0.90;0.60;;;19.50;69.00;;;;;;4995402;28;20405;-18
2022/08/27 06:53:05;;;;;;;0.40;0.40;;;19.50;68.80;;;;;;4993739;28;20046;-22
2022/08/27 06:55:30;;;;;;;2.13;0.40;;;19.60;68.70;;;;;;4993101;28;20446;-17
2022/08/27 06:57:56;;;;;;;0.85;0.50;;;19.60;68.50;;;;;;4996073;28;20512;-17
2022/08/27 07:00:21;;;;;;;1.38;0.50;;;19.70;68.30;;;;;;4644975;28;10000640;-17
2022/08/27 07:02:48;;;;;;;0.65;0.40;;;19.70;68.20;;;;;;4997127;28;20050;-29
2022/08/27 07:05:15;;;;;;;0.98;0.50;;;19.80;68.10;;;;;;4999167;28;20092;-17
2022/08/27 07:07:40;;;;;;;1.33;0.50;;;19.80;68.00;;;;;;4996706;28;20042;-18
2022/08/27 07:10:06;;;;;;;1.15;0.28;;;19.80;67.90;;;;;;5001578;28;20046;-18
2022/08/27 07:12:32;;;;;;;1.38;0.40;;;19.90;67.70;;;;;;4998500;28;20049;-18
2022/08/27 07:14:57;;;;;;;0.30;0.20;;;19.90;67.70;;;;;;4995343;28;20061;-18
2022/08/27 07:17:23;;;;;;;1.48;0.50;;;20.00;67.60;;;;;;4997647;28;20046;-17
2022/08/27 07:19:49;;;;;;;0.70;0.55;;;20.20;67.30;;;;;;4997817;28;20037;-17
2022/08/27 07:22:14;;;;;;;0.70;0.38;;;20.50;66.40;;;;;;4998074;28;20070;-18
2022/08/27 07:24:40;;;;;;;1.08;0.40;;;20.80;65.40;;;;;;5002993;28;20048;-18
2022/08/27 07:27:06;;;;;;;0.50;0.40;;;21.00;64.70;;;;;;4996514;28;20046;-17
2022/08/27 07:29:31;;;;;;;0.65;0.38;;;21.10;64.20;;;;;;4995749;28;20099;-18
2022/08/27 07:31:57;;;;;;;0.68;0.50;;;21.10;64.30;;;;;;5006701;28;20054;-17
2022/08/27 07:34:23;;;;;;;0.50;0.40;;;21.10;64.20;;;;;;5000020;28;20909;-17
2022/08/27 07:36:50;;;;;;;0.98;0.50;;;21.10;63.90;;;;;;4994986;28;20054;-17
2022/08/27 07:39:15;;;;;;;0.65;0.50;;;21.10;63.80;;;;;;4992834;28;20050;-17
2022/08/27 07:44:26;;;;;;;1.48;0.75;;;21.00;65.20;;;;;;4994660;28;20053;-21
2022/08/27 07:46:53;;;;;;;1.23;0.68;;;21.10;67.10;;;;;;4986409;28;20049;-20
2022/08/27 07:49:19;;;;;;;0.52;0.52;;;21.10;67.00;;;;;;4995213;28;20419;-19
2022/08/27 07:51:44;;;;;;;0.35;0.30;;;21.10;68.10;;;;;;4991181;28;20046;-19
2022/08/27 07:54:10;;;;;;;1.02;0.43;;;21.10;67.10;;;;;;4987462;28;20072;-19
2022/08/27 07:56:36;;;;;;;3.67;0.52;;;21.10;67.60;;;;;;4995546;28;20049;-22
2022/08/27 07:59:01;;;;;;;0.57;0.50;;;21.10;66.30;;;;;;4993090;28;20054;-19
2022/08/27 08:01:28;;;;;;;1.17;0.70;;;21.10;66.40;;;;;;4996378;28;20577;-20
2022/08/27 08:03:54;;;;;;;0.50;0.50;;;21.20;66.90;;;;;;4993868;28;20050;-19
2022/08/27 08:06:20;;;;;;;0.93;0.50;;;21.20;66.70;;;;;;4996795;28;20046;-19
2022/08/27 08:08:45;;;;;;;1.40;0.50;;;21.20;66.20;;;;;;4993070;28;20068;-20
2022/08/27 08:11:12;;;;;;;0.43;0.43;;;21.20;66.90;;;;;;4994551;28;20046;-19
2022/08/27 08:13:38;;;;;;;0.43;0.40;;;21.20;66.20;;;;;;4997268;28;20103;-18
2022/08/27 08:16:04;;;;;;;0.82;0.52;;;21.20;66.70;;;;;;4989055;28;20046;-18
2022/08/27 08:18:30;;;;;;;1.05;0.50;;;21.30;66.70;;;;;;4998496;28;20038;-18
2022/08/27 08:21:00;;;;;;;0.45;0.45;;;21.30;67.40;;;;;;4993992;28;20037;-18
2022/08/27 08:23:26;;;;;;;0.80;0.55;;;21.30;67.30;;;;;;4992689;28;20121;-21
2022/08/27 08:25:51;;;;;;;0.65;0.50;;;21.40;67.00;;;;;;4994485;28;20077;-18
2022/08/27 08:28:17;;;;;;;2.75;0.60;;;21.40;67.50;;;;;;4991131;28;20484;-18
2022/08/27 08:30:43;;;;;;;0.50;0.50;;;21.40;66.50;;;;;;4992769;28;20042;-18
2022/08/27 08:33:08;;;;;;;0.50;0.50;;;21.40;66.40;;;;;;4991897;28;20425;-18
2022/08/27 08:35:37;;;;;;;0.40;0.40;;;21.40;65.80;;;;;;4991980;28;20034;-19
2022/08/27 08:38:02;;;;;;;0.40;0.40;;;21.40;66.00;;;;;;4996005;28;20054;-18
2022/08/27 08:40:32;;;;;;;1.00;0.52;;;21.40;65.90;;;;;;4996228;28;20075;-18
2022/08/27 08:42:58;;;;;;;0.50;0.50;;;21.50;66.60;;;;;;4995559;28;20127;-18
2022/08/27 08:45:30;;;;;;;0.73;0.73;;;21.50;66.10;;;;;;5002000;28;20531;-18
2022/08/27 08:48:14;;;;;;;0.52;0.52;;;21.50;66.00;;;;;;5012749;28;20054;-18
2022/08/27 08:51:06;;;;;;;0.93;0.73;;;21.60;66.20;;;;;;4999744;28;20057;-25
2022/08/27 08:54:00;;;;;;;0.70;0.70;;;21.60;66.70;;;;;;4995814;28;20102;-32
2022/08/27 08:56:46;;;;;;;1.08;0.95;;;21.60;66.20;;;;;;4994136;28;20048;-18
2022/08/27 08:59:16;;;;;;;0.95;0.77;;;21.70;66.00;;;;;;4997425;28;20787;-21
2022/08/27 09:01:43;;;;;;;1.55;0.80;;;21.70;65.70;;;;;;5004752;28;21433;-20
2022/08/27 09:04:09;;;;;;;0.98;0.98;;;21.70;65.70;;;;;;5011549;28;20736;-19
2022/08/27 09:06:51;;;;;;;0.98;0.75;;;21.70;65.90;;;;;;4997483;28;20049;-25
2022/08/27 09:09:32;;;;;;;2.13;0.70;;;21.70;65.70;;;;;;4985805;28;20042;-25
2022/08/27 09:11:59;;;;;;;1.67;1.27;;;21.80;65.70;;;;;;5012542;28;20049;-31
2022/08/27 09:15:03;;;;;;;0.95;0.88;;;21.80;66.00;;;;;;5009472;28;20046;-33
2022/08/27 09:17:28;;;;;;;1.27;1.17;;;21.80;65.60;;;;;;5004728;28;20068;-19
2022/08/27 09:19:54;;;;;;;2.80;1.08;;;21.80;65.50;;;;;;5004980;28;20050;-19
2022/08/27 09:22:37;;;;;;;2.90;1.20;;;21.90;65.70;;;;;;4995967;28;21636;-18
2022/08/27 09:25:19;;;;;;;1.92;1.17;;;21.90;65.30;;;;;;4989457;28;20081;-29
2022/08/27 09:27:45;;;;;;;4.00;1.15;;;21.90;65.40;;;;;;4992930;28;20038;-20
2022/08/27 09:30:15;;;;;;;1.30;1.20;;;21.90;65.40;;;;;;4984185;28;20049;-21
2022/08/27 09:32:40;;;;;;;3.90;1.58;;;21.90;65.30;;;;;;4997246;28;20037;-18
2022/08/27 09:35:08;;;;;;;3.20;1.40;;;22.00;65.60;;;;;;5002108;28;20050;-18
2022/08/27 09:37:44;;;;;;;1.38;1.27;;;22.00;65.40;;;;;;4998063;28;20095;-18
2022/08/27 09:40:27;;;;;;;3.60;1.13;;;22.00;65.30;;;;;;4981721;28;20053;-18
2022/08/27 09:42:55;;;;;;;3.10;1.75;;;22.00;65.40;;;;;;4996407;28;20526;-20
2022/08/27 09:45:28;;;;;;;1.40;1.30;;;22.10;65.30;;;;;;4996941;28;20053;-22
2022/08/27 09:48:03;;;;;;;2.55;1.30;;;22.10;65.30;;;;;;4980414;28;20049;-19
2022/08/27 09:50:38;;;;;;;2.88;1.50;;;22.10;65.40;;;;;;5007989;28;20126;-20
2022/08/27 09:53:14;;;;;;;1.92;1.60;;;22.20;65.20;;;;;;4999846;28;20041;-19
2022/08/27 09:55:46;;;;;;;1.55;1.45;;;22.20;65.20;;;;;;4647572;28;10000419;-21
2022/08/27 09:58:26;;;;;;;1.90;1.27;;;22.20;65.00;;;;;;4990520;28;20096;-25
2022/08/27 10:01:03;;;;;;;2.47;1.30;;;22.20;65.30;;;;;;4994013;28;20086;-17
2022/08/27 10:03:28;;;;;;;1.38;1.27;;;22.20;65.30;;;;;;4989559;28;20080;-17
2022/08/27 10:05:54;;;;;;;3.00;1.33;;;22.30;65.10;;;;;;4991035;28;20049;-18
2022/08/27 10:08:41;;;;;;;1.50;1.40;;;22.30;64.80;;;;;;4998187;28;20052;-17
2022/08/27 10:11:24;;;;;;;1.60;1.50;;;22.30;64.70;;;;;;4990505;28;20053;-22
2022/08/27 10:14:19;;;;;;;1.23;1.13;;;22.30;64.70;;;;;;4989082;28;20593;-19
2022/08/27 10:16:54;;;;;;;1.30;1.17;;;22.30;64.60;;;;;;4999104;28;20042;-23
2022/08/27 10:19:27;;;;;;;1.08;1.00;;;22.40;64.50;;;;;;4993607;28;20039;-22
2022/08/27 10:21:57;;;;;;;1.13;1.05;;;22.40;64.40;;;;;;4995229;28;20034;-22
2022/08/27 10:24:44;;;;;;;2.83;1.67;;;22.40;64.20;;;;;;4993648;28;20046;-17
2022/08/27 10:27:37;;;;;;;1.50;1.40;;;22.40;64.20;;;;;;4990397;28;20118;-18
2022/08/27 10:30:07;;;;;;;1.50;1.17;;;22.50;64.40;;;;;;4990589;28;20543;-21
2022/08/27 10:32:57;;;;;;;2.33;1.30;;;22.50;64.20;;;;;;4993095;28;20168;-22
2022/08/27 10:35:47;;;;;;;1.83;1.40;;;22.50;64.20;;;;;;4990595;28;20044;-24
2022/08/27 10:38:29;;;;;;;1.88;1.20;;;22.50;64.10;;;;;;4992339;28;20056;-18
2022/08/27 10:41:03;;;;;;;4.43;1.52;;;22.50;64.20;;;;;;4996890;28;20042;-18
2022/08/27 10:43:37;;;;;;;1.98;1.42;;;22.60;64.00;;;;;;4992272;28;20038;-22
2022/08/27 10:46:14;;;;;;;1.35;1.25;;;22.60;63.90;;;;;;5005017;28;20133;-30
2022/08/27 10:48:47;;;;;;;1.50;1.20;;;22.60;63.70;;;;;;5007978;28;20054;-18
2022/08/27 10:51:30;;;;;;;2.43;2.20;;;22.70;63.80;;;;;;5008247;27;20042;-19
2022/08/27 10:53:58;;;;;;;3.45;2.45;;;22.70;63.90;;;;;;5011395;28;20064;-18
2022/08/27 10:56:36;;;;;;;3.30;2.83;;;22.70;63.80;;;;;;4993337;28;20049;-18
2022/08/27 10:59:06;;;;;;;3.63;3.03;;;22.70;63.90;;;;;;4999254;28;20042;-21
2022/08/27 11:01:53;;;;;;;4.72;3.20;;;22.70;63.90;;;;;;4648415;28;10000659;-18
2022/08/27 11:04:25;;;;;;;3.55;3.25;;;22.80;64.00;;;;;;4990312;28;20038;-18
2022/08/27 11:06:56;;;;;;;5.55;2.90;;;22.80;64.00;;;;;;4993054;28;20100;-18
2022/08/27 11:09:47;;;;;;;5.88;3.38;;;22.80;64.30;;;;;;4994999;28;20054;-18
2022/08/27 11:12:16;;;;;;;3.60;3.30;;;22.80;64.20;;;;;;5006665;28;20041;-18
2022/08/27 11:14:49;;;;;;;5.68;3.00;;;22.80;64.10;;;;;;5003844;27;20050;-20
2022/08/27 11:17:28;;;;;;;4.70;2.97;;;22.90;64.20;;;;;;4994684;28;20050;-18
2022/08/27 11:20:00;;;;;;;2.50;2.30;;;22.90;64.90;;;;;;4976856;28;20062;-18
2022/08/27 11:22:33;;;;;;;3.08;2.53;;;22.90;64.10;;;;;;4989363;28;20042;-18
2022/08/27 11:25:20;;;;;;;2.88;2.42;;;22.90;64.80;;;;;;5007318;28;20053;-20
2022/08/27 11:27:47;;;;;;;2.35;2.15;;;23.00;64.10;;;;;;4994910;28;20122;-29
2022/08/27 11:30:27;;;;;;;2.65;2.20;;;23.00;64.00;;;;;;4992496;28;20087;-18
2022/08/27 11:33:12;;;;;;;2.65;2.50;;;23.00;64.00;;;;;;4992981;28;20500;-29
2022/08/27 11:36:11;;;;;;;2.38;2.28;;;23.00;63.70;;;;;;4989038;28;20054;-27
2022/08/27 11:38:49;;;;;;;2.22;2.10;;;23.10;63.80;;;;;;4983118;28;20050;-23
2022/08/27 11:41:33;;;;;;;2.75;1.98;;;23.10;63.50;;;;;;4992526;28;20069;-41
2022/08/27 11:43:59;;;;;;;1.88;1.77;;;23.20;63.30;;;;;;4991894;28;20041;-19
2022/08/27 11:46:26;;;;;;;5.30;2.08;;;23.20;63.30;;;;;;4995527;28;20129;-40
2022/08/27 11:48:57;;;;;;;2.25;2.10;;;23.20;63.50;;;;;;4995095;28;20066;-27
2022/08/27 11:51:33;;;;;;;2.03;1.92;;;23.20;63.40;;;;;;5013820;28;20515;-23
2022/08/27 11:54:00;;;;;;;1.60;1.50;;;23.20;64.20;;;;;;4992573;28;20046;-38
2022/08/27 11:56:29;;;;;;;1.65;1.38;;;23.10;63.20;;;;;;5083349;28;20389;-27
2022/08/27 11:58:55;;;;;;;3.22;1.70;;;23.20;63.10;;;;;;4987032;28;20045;-22
2022/08/27 12:01:28;;;;;;;1.65;1.55;;;23.30;63.10;;;;;;4995344;28;20056;-23
2022/08/27 12:04:02;;;;;;;1.92;1.83;;;23.30;63.10;;;;;;4989728;28;20073;-45
2022/08/27 12:06:28;;;;;;;2.35;1.60;;;23.30;62.60;;;;;;4997262;28;20184;-36
2022/08/27 12:09:04;;;;;;;2.05;1.70;;;23.30;62.50;;;;;;4993230;28;20050;-27
2022/08/27 12:11:48;;;;;;;1.38;1.27;;;23.40;62.70;;;;;;4991954;28;20049;-29
2022/08/27 12:14:22;;;;;;;2.22;1.48;;;23.30;62.50;;;;;;4978895;28;20061;-22
2022/08/27 12:17:10;;;;;;;1.63;1.52;;;23.40;62.50;;;;;;4996623;28;20125;-23
2022/08/27 12:20:08;;;;;;;1.50;1.40;;;23.40;62.60;;;;;;4997943;28;20042;-20
2022/08/27 12:25:27;;;;;;;2.70;1.17;;;23.40;62.30;;;;;;4997132;28;20107;-26
2022/08/27 12:28:04;;;;;;;1.63;1.52;;;23.40;62.50;;;;;;4990078;28;20043;-37
2022/08/27 12:30:38;;;;;;;1.30;1.15;;;23.40;62.40;;;;;;4992129;28;20046;-38
2022/08/27 12:33:16;;;;;;;1.30;1.05;;;23.50;62.10;;;;;;4655130;28;10000188;-36
2022/08/27 12:35:47;;;;;;;0.80;0.77;;;23.50;62.10;;;;;;4991566;28;20079;-26
2022/08/27 12:38:32;;;;;;;1.20;1.15;;;23.50;61.30;;;;;;4990711;28;20054;-20
2022/08/27 12:41:02;;;;;;;1.20;1.10;;;23.50;62.00;;;;;;4991950;28;20853;-20
2022/08/27 12:43:32;;;;;;;1.58;0.85;;;23.50;62.00;;;;;;4988544;28;20202;-20
2022/08/27 12:45:59;;;;;;;4.18;1.45;;;23.50;62.10;;;;;;4990131;28;20082;-21
2022/08/27 12:48:33;;;;;;;1.60;1.38;;;23.60;61.90;;;;;;4977851;28;20038;-20
2022/08/27 12:51:00;;;;;;;1.20;1.10;;;23.60;61.30;;;;;;5063949;27;20511;-25
2022/08/27 12:53:45;;;;;;;2.92;1.30;;;23.60;61.60;;;;;;4992802;28;20042;-34
2022/08/27 12:56:42;;;;;;;1.05;1.00;;;23.70;61.90;;;;;;4989128;28;20050;-29
2022/08/27 12:59:45;;;;;;;1.90;1.00;;;23.60;61.70;;;;;;4647283;28;10000574;-33
2022/08/27 13:02:31;;;;;;;3.50;1.40;;;23.60;61.90;;;;;;4992779;28;20046;-29
2022/08/27 13:05:04;;;;;;;3.95;1.00;;;23.60;61.90;;;;;;4988851;28;20420;-22
2022/08/27 13:07:32;;;;;;;1.10;0.93;;;23.70;61.90;;;;;;4993003;28;20428;-19
2022/08/27 13:10:15;;;;;;;4.38;1.02;;;23.70;62.10;;;;;;4994436;28;20141;-18